createdAt,value
2022-09-23T00:01:58.621Z,98767.56
2022-09-23T00:05:06.942Z,98763.97
2022-09-23T00:08:15.170Z,98765.75
2022-09-23T00:11:23.791Z,98761.56
2022-09-23T00:14:29.669Z,98763.63
2022-09-23T00:17:38.973Z,98765.50
2022-09-23T00:20:44.584Z,98760.38
2022-09-23T00:23:52.062Z,98755.31
2022-09-23T00:26:57.996Z,98758.78
2022-09-23T00:30:09.473Z,98753.56
2022-09-23T00:33:18.001Z,98751.84
2022-09-23T00:36:24.820Z,98734.84
2022-09-23T00:39:30.417Z,98734.84
2022-09-23T00:42:36.837Z,98744.41
2022-09-23T00:45:42.752Z,98738.41
2022-09-23T00:49:03.388Z,98738.28
2022-09-23T00:52:16.053Z,98734.06
2022-09-23T00:55:28.019Z,98734.84
2022-09-23T00:58:37.298Z,98730.59
2022-09-23T01:01:44.287Z,98728.06
2022-09-23T01:04:54.397Z,98733.22
2022-09-23T01:08:04.225Z,98728.00
2022-09-23T01:11:21.937Z,98729.78
2022-09-23T01:14:40.678Z,98724.69
2022-09-23T01:17:54.479Z,98731.03
2022-09-23T01:21:21.668Z,98730.16
2022-09-23T01:24:49.141Z,98723.38
2022-09-23T01:28:16.000Z,98724.53
2022-09-23T01:31:31.709Z,98727.28
2022-09-23T01:34:45.199Z,98724.16
2022-09-23T01:37:55.381Z,98726.81
2022-09-23T01:41:09.600Z,98725.97
2022-09-23T01:44:22.122Z,98727.06
2022-09-23T01:47:35.697Z,98727.16
2022-09-23T01:51:03.478Z,98719.44
2022-09-23T01:54:16.065Z,98719.38
2022-09-23T01:57:28.686Z,98721.03
2022-09-23T02:00:40.852Z,98724.41
2022-09-23T02:03:55.484Z,98725.19
2022-09-23T02:07:06.580Z,98725.28
2022-09-23T02:10:18.627Z,98725.16
2022-09-23T02:13:32.778Z,98718.13
2022-09-23T02:16:42.815Z,98724.16
2022-09-23T02:19:56.733Z,98724.94
2022-09-23T02:23:06.446Z,98720.63
2022-09-23T02:26:21.886Z,98717.09
2022-09-23T02:29:34.355Z,98707.50
2022-09-23T02:32:51.832Z,98714.50
2022-09-23T02:36:06.685Z,98711.75
2022-09-23T02:39:16.817Z,98708.31
2022-09-23T02:42:26.463Z,98703.97
2022-09-23T02:45:33.870Z,98709.25
2022-09-23T02:48:44.078Z,98711.03
2022-09-23T02:51:54.705Z,98712.78
2022-09-23T02:55:01.066Z,98716.31
2022-09-23T02:58:08.794Z,98710.56
2022-09-23T03:01:22.289Z,98708.97
2022-09-23T03:04:38.586Z,98716.69
2022-09-23T03:07:55.284Z,98712.38
2022-09-23T03:11:08.799Z,98712.38
2022-09-23T03:14:22.281Z,98708.00
2022-09-23T03:17:37.746Z,98708.72
2022-09-23T03:20:49.705Z,98714.63
2022-09-23T03:24:03.729Z,98710.03
2022-09-23T03:27:15.174Z,98709.97
2022-09-23T03:30:22.133Z,98716.03
2022-09-23T03:33:30.558Z,98715.38
2022-09-23T03:36:55.023Z,98708.50
2022-09-23T03:40:12.300Z,98713.84
2022-09-23T03:43:19.662Z,98713.97
2022-09-23T03:46:28.722Z,98714.88
2022-09-23T03:49:40.027Z,98710.56
2022-09-23T03:52:46.611Z,98708.84
2022-09-23T03:55:55.792Z,98708.22
2022-09-23T03:59:03.324Z,98709.25
2022-09-23T04:02:10.542Z,98709.38
2022-09-23T04:05:18.212Z,98709.50
2022-09-23T04:08:24.909Z,98700.88
2022-09-23T04:11:33.221Z,98709.50
2022-09-23T04:14:39.635Z,98698.28
2022-09-23T04:17:45.207Z,98704.38
2022-09-23T04:20:51.678Z,98709.50
2022-09-23T04:23:57.258Z,98699.06
2022-09-23T04:27:06.551Z,98709.50
2022-09-23T04:30:13.050Z,98695.50
2022-09-23T04:33:19.698Z,98701.59
2022-09-23T04:36:25.512Z,98697.22
2022-09-23T04:39:32.157Z,98705.13
2022-09-23T04:42:40.511Z,98705.97
2022-09-23T04:45:47.346Z,98703.44
2022-09-23T04:48:52.982Z,98709.59
2022-09-23T04:51:59.663Z,98709.84
2022-09-23T04:55:10.958Z,98706.56
2022-09-23T04:58:23.180Z,98706.84
2022-09-23T05:01:31.305Z,98700.03
2022-09-23T05:04:38.279Z,98702.63
2022-09-23T05:07:43.899Z,98701.97
2022-09-23T05:10:50.331Z,98709.78
2022-09-23T05:13:58.760Z,98704.53
2022-09-23T05:17:08.373Z,98713.28
2022-09-23T05:20:15.920Z,98705.63
2022-09-23T05:23:22.839Z,98724.47
2022-09-23T05:26:29.877Z,98724.31
2022-09-23T05:29:39.374Z,98720.69
2022-09-23T05:32:45.806Z,98724.06
2022-09-23T05:35:54.570Z,98723.06
2022-09-23T05:39:01.341Z,98718.59
2022-09-23T05:42:12.586Z,98727.78
2022-09-23T05:45:21.019Z,98726.50
2022-09-23T05:48:27.519Z,98727.94
2022-09-23T05:51:33.702Z,98734.75
2022-09-23T05:54:41.024Z,98736.69
2022-09-23T05:57:46.572Z,98736.75
2022-09-23T06:00:56.916Z,98731.19
2022-09-23T06:04:03.547Z,98729.41
2022-09-23T06:07:10.437Z,98731.72
2022-09-23T06:10:17.485Z,98727.03
2022-09-23T06:13:23.908Z,98724.94
2022-09-23T06:16:34.180Z,98725.44
2022-09-23T06:19:41.014Z,98725.25
2022-09-23T06:22:47.475Z,98732.72
2022-09-23T06:25:55.740Z,98723.56
2022-09-23T06:29:03.327Z,98732.22
2022-09-23T06:32:12.846Z,98726.84
2022-09-23T06:35:26.488Z,98735.34
2022-09-23T06:38:34.805Z,98740.28
2022-09-23T06:41:40.400Z,98730.34
2022-09-23T06:44:51.496Z,98739.47
2022-09-23T06:48:03.333Z,98737.56
2022-09-23T06:51:11.424Z,98737.50
2022-09-23T06:54:17.098Z,98743.22
2022-09-23T06:57:24.551Z,98741.09
2022-09-23T07:00:30.156Z,98744.28
2022-09-23T07:03:40.947Z,98742.22
2022-09-23T07:06:46.475Z,98743.31
2022-09-23T07:09:53.115Z,98743.41
2022-09-23T07:12:59.119Z,98747.16
2022-09-23T07:16:06.396Z,98750.38
2022-09-23T07:19:15.221Z,98742.38
2022-09-23T07:22:21.804Z,98743.78
2022-09-23T07:25:27.705Z,98743.47
2022-09-23T07:28:34.205Z,98743.84
2022-09-23T07:31:40.325Z,98751.91
2022-09-23T07:34:50.055Z,98744.56
2022-09-23T07:37:55.590Z,98750.41
2022-09-23T07:41:06.938Z,98749.34
2022-09-23T07:44:13.767Z,98749.50
2022-09-23T07:47:20.717Z,98751.88
2022-09-23T07:50:32.047Z,98742.69
2022-09-23T07:53:38.481Z,98746.53
2022-09-23T07:56:45.213Z,98751.22
2022-09-23T07:59:51.620Z,98754.22
2022-09-23T08:03:00.366Z,98757.41
2022-09-23T08:06:15.801Z,98748.53
2022-09-23T08:09:22.920Z,98752.50
2022-09-23T08:12:30.565Z,98746.78
2022-09-23T08:15:36.177Z,98764.81
2022-09-23T08:18:42.582Z,98754.59
2022-09-23T08:21:52.410Z,98750.63
2022-09-23T08:24:58.805Z,98747.91
2022-09-23T08:28:06.287Z,98745.28
2022-09-23T08:31:13.798Z,98742.91
2022-09-23T08:34:20.399Z,98739.53
2022-09-23T08:37:30.043Z,98739.84
2022-09-23T08:40:38.925Z,98738.84
2022-09-23T08:43:51.242Z,98732.91
2022-09-23T08:47:06.351Z,98734.72
2022-09-23T08:50:21.165Z,98727.28
2022-09-23T08:53:32.717Z,98736.09
2022-09-23T08:56:42.487Z,98742.94
2022-09-23T08:59:49.598Z,98736.44
2022-09-23T09:02:58.114Z,98737.59
2022-09-23T09:06:04.263Z,98739.53
2022-09-23T09:09:24.895Z,98733.53
2022-09-23T09:12:37.450Z,98724.66
2022-09-23T09:15:55.202Z,98733.50
2022-09-23T09:19:03.352Z,98730.03
2022-09-23T09:22:17.122Z,98738.28
2022-09-23T09:25:39.955Z,98735.28
2022-09-23T09:28:52.127Z,98739.88
2022-09-23T09:31:58.311Z,98735.06
2022-09-23T09:35:12.909Z,98723.16
2022-09-23T09:38:22.246Z,98722.91
2022-09-23T09:41:33.353Z,98710.31
2022-09-23T09:44:45.092Z,98707.44
2022-09-23T09:47:58.742Z,98710.09
2022-09-23T09:51:21.766Z,98695.97
2022-09-23T09:54:28.970Z,98705.78
2022-09-23T09:57:42.906Z,98708.56
2022-09-23T10:00:50.825Z,98709.31
2022-09-23T10:03:59.613Z,98703.31
2022-09-23T10:07:10.717Z,98697.09
2022-09-23T10:10:36.695Z,98687.25
2022-09-23T10:14:06.326Z,98691.66
2022-09-23T10:17:20.818Z,98690.84
2022-09-23T10:20:28.009Z,98681.31
2022-09-23T10:23:35.194Z,98672.78
2022-09-23T10:26:46.496Z,98675.91
2022-09-23T10:29:58.115Z,98677.31
2022-09-23T10:33:06.637Z,98673.13
2022-09-23T10:36:13.937Z,98682.19
2022-09-23T10:39:36.215Z,98665.13
2022-09-23T10:43:15.511Z,98670.81
2022-09-23T10:46:48.740Z,98669.16
2022-09-23T10:50:17.568Z,98669.13
2022-09-23T10:53:35.671Z,98677.31
2022-09-23T10:56:48.826Z,98670.56
2022-09-23T11:00:06.413Z,98679.22
2022-09-23T11:03:58.544Z,98666.19
2022-09-23T11:07:15.437Z,98666.19
2022-09-23T11:11:03.369Z,98658.59
2022-09-23T11:14:32.902Z,98671.44
2022-09-23T11:18:06.572Z,98659.34
2022-09-23T11:21:37.246Z,98658.06
2022-09-23T11:25:07.112Z,98659.00
2022-09-23T11:28:50.797Z,98646.34
2022-09-23T11:32:11.179Z,98640.50
2022-09-23T11:35:23.103Z,98646.44
2022-09-23T11:38:37.881Z,98633.81
2022-09-23T11:41:45.832Z,98633.69
2022-09-23T11:44:57.931Z,98634.06
2022-09-23T11:48:08.629Z,98624.66
2022-09-23T11:51:19.356Z,98634.66
2022-09-23T11:54:34.979Z,98630.97
2022-09-23T11:57:49.613Z,98620.28
2022-09-23T12:01:03.453Z,98624.63
2022-09-23T12:04:20.470Z,98614.50
2022-09-23T12:07:32.981Z,98609.34
2022-09-23T12:10:52.743Z,98617.88
2022-09-23T12:14:10.561Z,98606.56
2022-09-23T12:17:35.319Z,98606.25
2022-09-23T12:21:06.385Z,98608.38
2022-09-23T12:24:47.607Z,98595.50
2022-09-23T12:27:59.230Z,98592.06
2022-09-23T12:31:08.998Z,98592.34
2022-09-23T12:34:26.469Z,98580.78
2022-09-23T12:37:37.406Z,98572.75
2022-09-23T12:40:44.930Z,98571.47
2022-09-23T12:43:58.314Z,98585.91
2022-09-23T12:47:34.062Z,98577.28
2022-09-23T12:50:54.456Z,98571.19
2022-09-23T12:54:26.579Z,98567.22
2022-09-23T12:57:45.672Z,98569.75
2022-09-23T13:01:09.901Z,98569.09
2022-09-23T13:04:53.132Z,98566.59
2022-09-23T13:08:06.044Z,98560.88
2022-09-23T13:11:22.016Z,98560.00
2022-09-23T13:14:30.770Z,98556.09
2022-09-23T13:17:40.795Z,98548.19
2022-09-23T13:20:48.540Z,98536.81
2022-09-23T13:24:23.386Z,98539.84
2022-09-23T13:27:35.842Z,98544.19
2022-09-23T13:30:52.443Z,98538.72
2022-09-23T13:34:07.612Z,98527.97
2022-09-23T13:37:22.902Z,98525.41
2022-09-23T13:40:31.833Z,98524.34
2022-09-23T13:43:41.647Z,98518.47
2022-09-23T13:46:53.067Z,98520.78
2022-09-23T13:50:03.207Z,98513.72
2022-09-23T13:53:13.564Z,98512.97
2022-09-23T13:56:19.422Z,98518.66
2022-09-23T13:59:32.402Z,98519.06
2022-09-23T14:02:45.571Z,98517.38
2022-09-23T14:05:56.120Z,98507.88
2022-09-23T14:09:06.621Z,98505.75
2022-09-23T14:12:14.447Z,98502.91
2022-09-23T14:15:22.783Z,98499.16
2022-09-23T14:18:35.123Z,98494.81
2022-09-23T14:21:43.615Z,98496.00
2022-09-23T14:24:51.530Z,98496.53
2022-09-23T14:28:00.369Z,98482.59
2022-09-23T14:31:08.704Z,98489.75
2022-09-23T14:34:42.256Z,98483.66
2022-09-23T14:38:09.381Z,98489.13
2022-09-23T14:41:25.045Z,98484.03
2022-09-23T14:44:33.461Z,98485.53
2022-09-23T14:47:39.577Z,98483.22
2022-09-23T14:50:51.552Z,98486.16
2022-09-23T14:54:27.400Z,98477.63
2022-09-23T14:57:34.285Z,98473.31
2022-09-23T15:00:39.994Z,98472.25
2022-09-23T15:03:50.751Z,98467.53
2022-09-23T15:07:03.382Z,98469.19
2022-09-23T15:10:23.809Z,98468.78
2022-09-23T15:13:32.971Z,98461.31
2022-09-23T15:16:42.058Z,98459.78
2022-09-23T15:19:52.701Z,98465.50
2022-09-23T15:22:59.510Z,98462.53
2022-09-23T15:26:14.707Z,98468.00
2022-09-23T15:29:21.487Z,98462.31
2022-09-23T15:32:27.311Z,98473.06
2022-09-23T15:35:35.221Z,98464.97
2022-09-23T15:38:45.249Z,98465.72
2022-09-23T15:41:54.425Z,98469.22
2022-09-23T15:45:01.164Z,98466.16
2022-09-23T15:48:13.806Z,98467.00
2022-09-23T15:51:19.785Z,98467.81
2022-09-23T15:54:26.369Z,98461.47
2022-09-23T15:57:34.703Z,98458.47
2022-09-23T16:00:41.345Z,98460.75
2022-09-23T16:03:46.965Z,98457.78
2022-09-23T16:06:53.375Z,98452.94
2022-09-23T16:09:59.026Z,98461.16
2022-09-23T16:13:13.974Z,98457.94
2022-09-23T16:16:21.530Z,98448.88
2022-09-23T16:19:28.092Z,98456.25
2022-09-23T16:22:34.220Z,98459.16
2022-09-23T16:25:40.991Z,98453.25
2022-09-23T16:28:51.191Z,98451.75
2022-09-23T16:31:57.670Z,98456.38
2022-09-23T16:35:03.578Z,98460.25
2022-09-23T16:38:10.035Z,98449.56
2022-09-23T16:41:15.644Z,98460.97
2022-09-23T16:44:25.051Z,98450.38
2022-09-23T16:47:30.702Z,98449.97
2022-09-23T16:50:37.773Z,98449.72
2022-09-23T16:53:44.346Z,98447.56
2022-09-23T16:56:50.927Z,98451.50
2022-09-23T17:00:15.316Z,98447.66
2022-09-23T17:03:37.608Z,98447.19
2022-09-23T17:06:46.503Z,98451.50
2022-09-23T17:09:53.614Z,98447.72
2022-09-23T17:13:01.244Z,98445.81
2022-09-23T17:16:11.998Z,98442.06
2022-09-23T17:19:17.850Z,98434.91
2022-09-23T17:22:24.306Z,98445.09
2022-09-23T17:25:30.246Z,98444.78
2022-09-23T17:28:36.653Z,98442.75
2022-09-23T17:31:45.061Z,98458.00
2022-09-23T17:34:54.363Z,98445.41
2022-09-23T17:37:59.933Z,98452.78
2022-09-23T17:41:10.245Z,98446.16
2022-09-23T17:44:17.763Z,98445.69
2022-09-23T17:47:27.224Z,98455.75
2022-09-23T17:50:33.695Z,98457.03
2022-09-23T17:53:42.374Z,98459.06
2022-09-23T17:56:48.002Z,98462.16
2022-09-23T17:59:56.221Z,98456.50
2022-09-23T18:03:06.362Z,98460.22
2022-09-23T18:06:15.662Z,98464.13
2022-09-23T18:09:22.091Z,98455.81
2022-09-23T18:12:28.541Z,98459.66
2022-09-23T18:15:34.223Z,98454.78
2022-09-23T18:18:43.473Z,98452.41
2022-09-23T18:21:51.179Z,98457.97
2022-09-23T18:24:57.674Z,98466.06
2022-09-23T18:28:03.394Z,98454.97
2022-09-23T18:31:10.181Z,98459.59
2022-09-23T18:34:20.454Z,98458.19
2022-09-23T18:37:26.992Z,98451.44
2022-09-23T18:40:34.562Z,98455.97
2022-09-23T18:43:46.326Z,98458.81
2022-09-23T18:46:54.085Z,98452.03
2022-09-23T18:50:18.974Z,98448.13
2022-09-23T18:53:24.540Z,98449.16
2022-09-23T18:56:37.407Z,98449.28
2022-09-23T18:59:44.565Z,98452.97
2022-09-23T19:02:51.066Z,98451.44
2022-09-23T19:06:06.632Z,98455.91
2022-09-23T19:09:13.822Z,98451.88
2022-09-23T19:12:19.411Z,98446.84
2022-09-23T19:15:25.893Z,98455.75
2022-09-23T19:18:31.603Z,98454.22
2022-09-23T19:21:40.846Z,98462.97
2022-09-23T19:24:46.502Z,98456.22
2022-09-23T19:27:54.013Z,98461.59
2022-09-23T19:30:59.673Z,98447.91
2022-09-23T19:34:10.890Z,98442.94
2022-09-23T19:37:19.374Z,98452.50
2022-09-23T19:40:25.975Z,98455.25
2022-09-23T19:43:31.689Z,98450.19
2022-09-23T19:46:40.898Z,98442.41
2022-09-23T19:49:47.555Z,98444.22
2022-09-23T19:52:56.832Z,98443.56
2022-09-23T19:56:06.356Z,98444.56
2022-09-23T19:59:17.788Z,98439.38
2022-09-23T20:02:24.403Z,98440.38
2022-09-23T20:05:31.099Z,98440.59
2022-09-23T20:08:41.836Z,98437.22
2022-09-23T20:11:48.352Z,98435.66
2022-09-23T20:14:53.966Z,98435.81
2022-09-23T20:18:00.403Z,98434.22
2022-09-23T20:21:08.837Z,98423.81
2022-09-23T20:24:18.070Z,98427.41
2022-09-23T20:27:23.725Z,98425.94
2022-09-23T20:30:30.144Z,98428.53
2022-09-23T20:33:35.826Z,98424.41
2022-09-23T20:36:44.384Z,98431.47
2022-09-23T20:39:54.326Z,98423.63
2022-09-23T20:43:04.489Z,98421.16
2022-09-23T20:46:10.046Z,98421.28
2022-09-23T20:49:16.677Z,98418.81
2022-09-23T20:52:23.064Z,98418.06
2022-09-23T20:55:32.861Z,98414.81
2022-09-23T20:58:39.284Z,98408.88
2022-09-23T21:01:48.050Z,98415.09
2022-09-23T21:04:53.692Z,98416.13
2022-09-23T21:08:03.091Z,98418.88
2022-09-23T21:11:15.218Z,98424.22
2022-09-23T21:14:22.294Z,98425.22
2022-09-23T21:17:28.174Z,98428.59
2022-09-23T21:20:34.846Z,98431.31
2022-09-23T21:23:42.128Z,98417.47
2022-09-23T21:26:51.576Z,98422.81
2022-09-23T21:29:57.128Z,98421.25
2022-09-23T21:33:03.533Z,98416.16
2022-09-23T21:36:10.727Z,98421.69
2022-09-23T21:39:17.164Z,98423.66
2022-09-23T21:42:25.895Z,98427.16
2022-09-23T21:45:32.293Z,98430.84
2022-09-23T21:48:41.236Z,98427.38
2022-09-23T21:51:47.768Z,98434.38
2022-09-23T21:54:53.381Z,98428.38
2022-09-23T21:58:03.375Z,98427.59
2022-09-23T22:01:13.508Z,98430.34
2022-09-23T22:04:22.026Z,98429.69
2022-09-23T22:07:27.675Z,98429.81
2022-09-23T22:10:34.044Z,98430.81
2022-09-23T22:13:42.372Z,98428.25
2022-09-23T22:16:48.968Z,98424.84
2022-09-23T22:19:54.516Z,98430.09
2022-09-23T22:23:00.905Z,98433.63
2022-09-23T22:26:07.056Z,98430.09
2022-09-23T22:29:33.316Z,98437.69
2022-09-23T22:32:54.251Z,98429.69
2022-09-23T22:36:05.828Z,98427.59
2022-09-23T22:39:11.360Z,98418.69
2022-09-23T22:42:18.272Z,98415.19
2022-09-23T22:45:27.125Z,98414.47
2022-09-23T22:48:33.817Z,98415.03
2022-09-23T22:51:40.698Z,98414.06
2022-09-23T22:54:47.107Z,98415.59
2022-09-23T22:57:53.496Z,98412.91
2022-09-23T23:01:02.855Z,98417.22
2022-09-23T23:04:08.938Z,98413.72
2022-09-23T23:07:16.453Z,98419.72
2022-09-23T23:10:25.004Z,98418.00
2022-09-23T23:13:34.473Z,98416.34
2022-09-23T23:16:44.112Z,98418.84
2022-09-23T23:19:50.686Z,98409.25
2022-09-23T23:22:56.539Z,98413.50
2022-09-23T23:26:10.110Z,98397.06
2022-09-23T23:29:18.259Z,98407.56
2022-09-23T23:32:27.503Z,98404.03
2022-09-23T23:35:33.138Z,98405.72
2022-09-23T23:38:40.476Z,98405.72
2022-09-23T23:41:46.291Z,98398.69
2022-09-23T23:44:52.701Z,98396.97
2022-09-23T23:48:01.047Z,98390.91
2022-09-23T23:51:11.050Z,98391.91
2022-09-23T23:54:17.386Z,98386.88
2022-09-23T23:57:24.090Z,98390.41
